Time;durP1;ratioP1;P1;durP2;ratioP2;P2;SDS_P1;SDS_P2;PMS_P1;PMS_P2;Temp;Humidity;BMP_temperature;BMP_pressure;BME280_temperature;BME280_humidity;BME280_pressure;Samples;Min_cycle;Max_cycle;Signal;HPM_P1;HPM_P2
2022/03/01 00:01:43;;;;;;;;;;;;;;;;;;5072267;28;1395;-75
2022/03/01 00:04:09;;;;;;;;;;;;;;;;;;5071442;28;1315;-77
2022/03/01 00:06:34;;;;;;;;;;;;;;;;;;5110505;28;1397;-77
2022/03/01 00:08:59;;;;;;;;;;;;;;;;;;5090200;28;1199;-77
2022/03/01 00:11:25;;;;;;;;;;;;;;;;;;5089163;28;1186;-77
2022/03/01 00:13:54;;;;;;;;;;;;;;;;;;5091347;28;1942;-76
2022/03/01 00:16:20;;;;;;;;;;;;;;;;;;5091497;28;1179;-75
2022/03/01 00:18:45;;;;;;;;;;;;;;;;;;5068975;28;1426;-75
2022/03/01 00:21:11;;;;;;;;;;;;;;;;;;5107040;28;1060;-76
2022/03/01 00:23:37;;;;;;;;;;;;;;;;;;5073945;28;1341;-76
2022/03/01 00:26:03;;;;;;;;;;;;;;;;;;5072568;28;1308;-75
2022/03/01 00:28:29;;;;;;;;;;;;;;;;;;5087692;28;1309;-76
2022/03/01 00:30:54;;;;;;;;;;;;;;;;;;5074265;28;1306;-76
2022/03/01 00:33:20;;;;;;;;;;;;;;;;;;5073684;28;2069;-75
2022/03/01 00:35:45;;;;;;;;;;;;;;;;;;5074546;28;1211;-75
2022/03/01 00:38:11;;;;;;;;;;;;;;;;;;5050581;28;1200;-76
2022/03/01 00:40:36;;;;;;;;;;;;;;;;;;5102237;28;1168;-76
2022/03/01 00:43:01;;;;;;;;;;;;;;;;;;5103848;28;1257;-75
2022/03/01 00:45:26;;;;;;;;;;;;;;;;;;5055783;28;1380;-75
2022/03/01 00:47:52;;;;;;;;;;;;;;;;;;5082955;28;1179;-76
2022/03/01 00:50:17;;;;;;;;;;;;;;;;;;5055231;28;1336;-75
2022/03/01 00:52:43;;;;;;;;;;;;;;;;;;5068510;28;1985;-75
2022/03/01 00:55:08;;;;;;;;;;;;;;;;;;5067471;28;1116;-75
2022/03/01 00:57:33;;;;;;;;;;;;;;;;;;5064506;28;1194;-75
2022/03/01 00:59:59;;;;;;;;;;;;;;;;;;5087338;28;1140;-75
2022/03/01 01:02:25;;;;;;;;;;;;;;;;;;5084139;28;1171;-75
2022/03/01 01:04:50;;;;;;;;;;;;;;;;;;5066373;28;1285;-75
2022/03/01 01:07:16;;;;;;;;;;;;;;;;;;5052723;28;1209;-75
2022/03/01 01:09:41;;;;;;;;;;;;;;;;;;5091614;28;1128;-75
2022/03/01 01:12:09;;;;;;;;;;;;;;;;;;5084504;28;2006;-75
2022/03/01 01:14:34;;;;;;;;;;;;;;;;;;5069213;28;1304;-76
2022/03/01 01:16:59;;;;;;;;;;;;;;;;;;5081750;28;1261;-77
2022/03/01 01:19:25;;;;;;;;;;;;;;;;;;5075355;28;1226;-76
2022/03/01 01:24:34;;;;;;;;;;;;;;;;;;5105966;28;1039;-76
2022/03/01 01:26:59;;;;;;;;;;;;;;;;;;5084480;28;1167;-76
2022/03/01 01:29:25;;;;;;;;;;;;;;;;;;5071698;28;1262;-76
2022/03/01 01:31:50;;;;;;;;;;;;;;;;;;5070884;28;1538;-76
2022/03/01 01:34:16;;;;;;;;;;;;;;;;;;5105184;28;1926;-74
2022/03/01 01:36:41;;;;;;;;;;;;;;;;;;5110352;28;1230;-75
2022/03/01 01:39:06;;;;;;;;;;;;;;;;;;5070497;28;1374;-76
2022/03/01 01:41:31;;;;;;;;;;;;;;;;;;5087602;28;1175;-75
2022/03/01 01:43:59;;;;;;;;;;;;;;;;;;5107136;28;1212;-75
2022/03/01 01:46:24;;;;;;;;;;;;;;;;;;5089188;28;1167;-76
2022/03/01 01:48:49;;;;;;;;;;;;;;;;;;5066946;28;1235;-76
2022/03/01 01:51:14;;;;;;;;;;;;;;;;;;5081437;28;1214;-76
2022/03/01 01:53:40;;;;;;;;;;;;;;;;;;5082053;28;1894;-76
2022/03/01 01:56:09;;;;;;;;;;;;;;;;;;5069036;28;1328;-76
2022/03/01 01:58:34;;;;;;;;;;;;;;;;;;5108406;28;1068;-76
2022/03/01 02:01:00;;;;;;;;;;;;;;;;;;5107391;28;1175;-76
2022/03/01 02:03:26;;;;;;;;;;;;;;;;;;5067258;28;1060;-77
2022/03/01 02:05:51;;;;;;;;;;;;;;;;;;5091494;28;1191;-77
2022/03/01 02:08:16;;;;;;;;;;;;;;;;;;5083713;28;1187;-76
2022/03/01 02:10:41;;;;;;;;;;;;;;;;;;5080414;28;1270;-75
2022/03/01 02:13:07;;;;;;;;;;;;;;;;;;5102459;28;1973;-74
2022/03/01 02:15:32;;;;;;;;;;;;;;;;;;5072189;28;1765;-76
2022/03/01 02:17:58;;;;;;;;;;;;;;;;;;5082212;28;1219;-76
2022/03/01 02:20:24;;;;;;;;;;;;;;;;;;5071778;28;1266;-76
2022/03/01 02:22:53;;;;;;;;;;;;;;;;;;5072111;28;1242;-76
2022/03/01 02:25:18;;;;;;;;;;;;;;;;;;5065371;28;1302;-76
2022/03/01 02:27:43;;;;;;;;;;;;;;;;;;5064039;28;1310;-76
2022/03/01 02:30:09;;;;;;;;;;;;;;;;;;5066200;28;1120;-76
2022/03/01 02:32:35;;;;;;;;;;;;;;;;;;5061331;28;1889;-76
2022/03/01 02:35:02;;;;;;;;;;;;;;;;;;5051102;28;1291;-76
2022/03/01 02:37:27;;;;;;;;;;;;;;;;;;5049849;28;1374;-76
2022/03/01 02:39:55;;;;;;;;;;;;;;;;;;5066504;28;1190;-76
2022/03/01 02:42:21;;;;;;;;;;;;;;;;;;5081458;28;1179;-77
2022/03/01 02:44:48;;;;;;;;;;;;;;;;;;5084824;28;1215;-76
2022/03/01 02:47:17;;;;;;;;;;;;;;;;;;5062886;28;1306;-76
2022/03/01 02:49:43;;;;;;;;;;;;;;;;;;5080900;28;1015;-75
2022/03/01 02:52:10;;;;;;;;;;;;;;;;;;5064538;28;1918;-75
2022/03/01 02:54:35;;;;;;;;;;;;;;;;;;5066478;28;1125;-75
2022/03/01 02:57:04;;;;;;;;;;;;;;;;;;5060313;28;1270;-76
2022/03/01 02:59:29;;;;;;;;;;;;;;;;;;5060532;28;1286;-75
2022/03/01 03:01:55;;;;;;;;;;;;;;;;;;5060504;28;1174;-77
2022/03/01 03:04:21;;;;;;;;;;;;;;;;;;5079849;28;1186;-77
2022/03/01 03:06:46;;;;;;;;;;;;;;;;;;5088409;28;1182;-77
2022/03/01 03:09:11;;;;;;;;;;;;;;;;;;5066948;28;1298;-74
2022/03/01 03:11:36;;;;;;;;;;;;;;;;;;5103488;28;1310;-77
2022/03/01 03:14:06;;;;;;;;;;;;;;;;;;5069970;28;1905;-77
2022/03/01 03:16:31;;;;;;;;;;;;;;;;;;5066742;28;1151;-76
2022/03/01 03:18:56;;;;;;;;;;;;;;;;;;5061563;28;1168;-76
2022/03/01 03:21:22;;;;;;;;;;;;;;;;;;5064483;28;1384;-76
2022/03/01 03:23:47;;;;;;;;;;;;;;;;;;5050466;28;1364;-76
2022/03/01 03:26:12;;;;;;;;;;;;;;;;;;5065316;28;1174;-76
2022/03/01 03:28:37;;;;;;;;;;;;;;;;;;5066686;28;1278;-76
2022/03/01 03:31:03;;;;;;;;;;;;;;;;;;5050244;28;1192;-75
2022/03/01 03:33:29;;;;;;;;;;;;;;;;;;5074472;28;1894;-76
2022/03/01 03:35:56;;;;;;;;;;;;;;;;;;5070795;28;1148;-76
2022/03/01 03:38:22;;;;;;;;;;;;;;;;;;5084573;28;1349;-76
2022/03/01 03:40:47;;;;;;;;;;;;;;;;;;5070712;28;1227;-76
2022/03/01 03:43:12;;;;;;;;;;;;;;;;;;5102188;28;1143;-75
2022/03/01 03:45:38;;;;;;;;;;;;;;;;;;5087412;28;1278;-75
2022/03/01 03:48:03;;;;;;;;;;;;;;;;;;5100338;28;1234;-75
2022/03/01 03:50:28;;;;;;;;;;;;;;;;;;5085397;28;1341;-76
2022/03/01 03:52:54;;;;;;;;;;;;;;;;;;5103870;28;1954;-76
2022/03/01 03:55:19;;;;;;;;;;;;;;;;;;5104015;28;1135;-75
2022/03/01 03:57:44;;;;;;;;;;;;;;;;;;5097605;28;1159;-76
2022/03/01 04:00:15;;;;;;;;;;;;;;;;;;5082959;28;1203;-75
2022/03/01 04:02:45;;;;;;;;;;;;;;;;;;5062699;28;1209;-77
2022/03/01 04:05:12;;;;;;;;;;;;;;;;;;5064842;28;1268;-76
2022/03/01 04:07:38;;;;;;;;;;;;;;;;;;5084082;28;1119;-75
2022/03/01 04:10:03;;;;;;;;;;;;;;;;;;5085286;28;1195;-77
2022/03/01 04:12:29;;;;;;;;;;;;;;;;;;5080947;28;1909;-75
2022/03/01 04:14:54;;;;;;;;;;;;;;;;;;5050471;28;1231;-75
2022/03/01 04:17:19;;;;;;;;;;;;;;;;;;5082304;28;1185;-75
2022/03/01 04:19:44;;;;;;;;;;;;;;;;;;5043471;28;1263;-76
2022/03/01 04:22:13;;;;;;;;;;;;;;;;;;5046180;28;1401;-76
2022/03/01 04:24:38;;;;;;;;;;;;;;;;;;5065071;28;1072;-76
2022/03/01 04:27:04;;;;;;;;;;;;;;;;;;5083302;28;1108;-76
2022/03/01 04:29:29;;;;;;;;;;;;;;;;;;5062805;28;1147;-76
2022/03/01 04:31:55;;;;;;;;;;;;;;;;;;5066282;28;1332;-75
2022/03/01 04:34:20;;;;;;;;;;;;;;;;;;5076357;28;1893;-76
2022/03/01 04:36:46;;;;;;;;;;;;;;;;;;5104420;28;1155;-75
2022/03/01 04:39:12;;;;;;;;;;;;;;;;;;5104609;28;1080;-75
2022/03/01 04:41:38;;;;;;;;;;;;;;;;;;5084062;28;1147;-76
2022/03/01 04:44:05;;;;;;;;;;;;;;;;;;5069556;28;1207;-75
2022/03/01 04:46:31;;;;;;;;;;;;;;;;;;5086597;28;1183;-76
2022/03/01 04:48:56;;;;;;;;;;;;;;;;;;5065146;28;1378;-75
2022/03/01 04:51:21;;;;;;;;;;;;;;;;;;5066784;28;1342;-76
2022/03/01 04:53:47;;;;;;;;;;;;;;;;;;5051168;28;1898;-75
2022/03/01 04:56:13;;;;;;;;;;;;;;;;;;5067409;28;1141;-75
2022/03/01 04:58:39;;;;;;;;;;;;;;;;;;5050379;28;1073;-76
2022/03/01 05:01:04;;;;;;;;;;;;;;;;;;5068804;28;1317;-76
2022/03/01 05:03:29;;;;;;;;;;;;;;;;;;5080972;28;1151;-76
2022/03/01 05:05:54;;;;;;;;;;;;;;;;;;5087268;28;1222;-75
2022/03/01 05:08:23;;;;;;;;;;;;;;;;;;5065361;28;1366;-74
2022/03/01 05:10:48;;;;;;;;;;;;;;;;;;5054392;28;1350;-76
2022/03/01 05:13:38;;;;;;;;;;;;;;;;;;5085229;28;1893;-75
2022/03/01 05:16:07;;;;;;;;;;;;;;;;;;5088074;28;1263;-76
2022/03/01 05:18:32;;;;;;;;;;;;;;;;;;5100806;28;1108;-76
2022/03/01 05:20:58;;;;;;;;;;;;;;;;;;5089468;28;1300;-76
2022/03/01 05:23:23;;;;;;;;;;;;;;;;;;5084893;28;1375;-76
2022/03/01 05:25:48;;;;;;;;;;;;;;;;;;5071599;28;1392;-76
2022/03/01 05:28:14;;;;;;;;;;;;;;;;;;5072397;28;1195;-76
2022/03/01 05:30:40;;;;;;;;;;;;;;;;;;5053065;28;1165;-76
2022/03/01 05:33:07;;;;;;;;;;;;;;;;;;5088662;28;1894;-76
2022/03/01 05:35:32;;;;;;;;;;;;;;;;;;5067741;28;1200;-76
2022/03/01 05:37:58;;;;;;;;;;;;;;;;;;5070630;28;1168;-76
2022/03/01 05:40:24;;;;;;;;;;;;;;;;;;5069051;28;1254;-76
2022/03/01 05:42:49;;;;;;;;;;;;;;;;;;5085191;28;1187;-76
2022/03/01 05:45:15;;;;;;;;;;;;;;;;;;5052429;28;1227;-76
2022/03/01 05:47:46;;;;;;;;;;;;;;;;;;5067312;28;1699;-75
2022/03/01 05:50:12;;;;;;;;;;;;;;;;;;5070947;28;1188;-75
2022/03/01 05:52:38;;;;;;;;;;;;;;;;;;5081378;28;1971;-76
2022/03/01 05:55:04;;;;;;;;;;;;;;;;;;5085669;28;1149;-76
2022/03/01 05:57:30;;;;;;;;;;;;;;;;;;5084229;28;1260;-76
2022/03/01 05:59:55;;;;;;;;;;;;;;;;;;5081566;28;1191;-76
2022/03/01 06:02:21;;;;;;;;;;;;;;;;;;5076507;28;1191;-76
2022/03/01 06:04:47;;;;;;;;;;;;;;;;;;5079983;28;1246;-77
2022/03/01 06:07:12;;;;;;;;;;;;;;;;;;5084928;28;1609;-77
2022/03/01 06:09:37;;;;;;;;;;;;;;;;;;5085871;28;1068;-77
2022/03/01 06:12:03;;;;;;;;;;;;;;;;;;5084451;28;1171;-76
2022/03/01 06:14:28;;;;;;;;;;;;;;;;;;5083394;28;1951;-77
2022/03/01 06:16:53;;;;;;;;;;;;;;;;;;5089227;28;1167;-77
2022/03/01 06:19:19;;;;;;;;;;;;;;;;;;5089198;28;1191;-77
2022/03/01 06:21:44;;;;;;;;;;;;;;;;;;5069827;28;1273;-77
2022/03/01 06:24:10;;;;;;;;;;;;;;;;;;5083936;28;1483;-75
2022/03/01 06:26:36;;;;;;;;;;;;;;;;;;5080849;28;1399;-76
2022/03/01 06:29:02;;;;;;;;;;;;;;;;;;5085642;28;1179;-76
2022/03/01 06:31:27;;;;;;;;;;;;;;;;;;5083686;28;1230;-76
2022/03/01 06:33:52;;;;;;;;;;;;;;;;;;5080810;28;1965;-76
2022/03/01 06:36:17;;;;;;;;;;;;;;;;;;5085936;28;1159;-75
2022/03/01 06:38:43;;;;;;;;;;;;;;;;;;5082595;28;1151;-76
2022/03/01 06:41:08;;;;;;;;;;;;;;;;;;5087018;28;1288;-76
2022/03/01 06:43:33;;;;;;;;;;;;;;;;;;5089198;28;1166;-75
2022/03/01 06:45:59;;;;;;;;;;;;;;;;;;5088926;28;1251;-76
2022/03/01 06:48:25;;;;;;;;;;;;;;;;;;5080869;28;1123;-76
2022/03/01 06:50:50;;;;;;;;;;;;;;;;;;5063560;28;1199;-76
2022/03/01 06:53:17;;;;;;;;;;;;;;;;;;5063630;28;1905;-76
2022/03/01 06:55:43;;;;;;;;;;;;;;;;;;5062749;28;1187;-76
2022/03/01 06:58:08;;;;;;;;;;;;;;;;;;5065367;28;1063;-76
2022/03/01 07:00:34;;;;;;;;;;;;;;;;;;5064181;28;1156;-76
2022/03/01 07:02:59;;;;;;;;;;;;;;;;;;5074053;28;1303;-76
2022/03/01 07:05:28;;;;;;;;;;;;;;;;;;5063520;28;1301;-75
2022/03/01 07:07:53;;;;;;;;;;;;;;;;;;5063486;28;1208;-77
2022/03/01 07:10:19;;;;;;;;;;;;;;;;;;5048553;28;1632;-77
2022/03/01 07:12:45;;;;;;;;;;;;;;;;;;5060993;28;1918;-76
2022/03/01 07:15:10;;;;;;;;;;;;;;;;;;5065453;28;1164;-76
2022/03/01 07:17:35;;;;;;;;;;;;;;;;;;5061001;28;1339;-75
2022/03/01 07:20:02;;;;;;;;;;;;;;;;;;5071707;28;1231;-76
2022/03/01 07:22:28;;;;;;;;;;;;;;;;;;5065060;28;1326;-76
2022/03/01 07:24:53;;;;;;;;;;;;;;;;;;5064145;28;1172;-75
2022/03/01 07:27:18;;;;;;;;;;;;;;;;;;5063355;28;1298;-76
2022/03/01 07:29:43;;;;;;;;;;;;;;;;;;5044268;28;1204;-72
2022/03/01 07:32:09;;;;;;;;;;;;;;;;;;5065085;28;1219;-76
2022/03/01 07:34:35;;;;;;;;;;;;;;;;;;5077467;28;1890;-76
2022/03/01 07:37:00;;;;;;;;;;;;;;;;;;5066159;28;1459;-75
2022/03/01 07:39:26;;;;;;;;;;;;;;;;;;5084197;28;1167;-76
2022/03/01 07:41:52;;;;;;;;;;;;;;;;;;5080078;28;1135;-75
2022/03/01 07:44:18;;;;;;;;;;;;;;;;;;5075943;28;1113;-76
2022/03/01 07:46:43;;;;;;;;;;;;;;;;;;5080632;28;1199;-76
2022/03/01 07:49:08;;;;;;;;;;;;;;;;;;5080488;28;1188;-76
2022/03/01 07:51:34;;;;;;;;;;;;;;;;;;5081520;28;1044;-73
2022/03/01 07:53:59;;;;;;;;;;;;;;;;;;5074921;28;1893;-76
2022/03/01 07:56:25;;;;;;;;;;;;;;;;;;5082175;28;1271;-76
2022/03/01 07:58:51;;;;;;;;;;;;;;;;;;5080986;28;1225;-76
2022/03/01 08:01:16;;;;;;;;;;;;;;;;;;5066583;28;1611;-76
2022/03/01 08:03:41;;;;;;;;;;;;;;;;;;5079997;28;1143;-76
2022/03/01 08:06:07;;;;;;;;;;;;;;;;;;5080943;28;1192;-76
2022/03/01 08:08:35;;;;;;;;;;;;;;;;;;5079939;28;1242;-76
2022/03/01 08:11:00;;;;;;;;;;;;;;;;;;5064440;28;1183;-76
2022/03/01 08:13:26;;;;;;;;;;;;;;;;;;5060729;28;1921;-75
2022/03/01 08:15:52;;;;;;;;;;;;;;;;;;5064838;28;1392;-76
2022/03/01 08:18:17;;;;;;;;;;;;;;;;;;5063628;28;1192;-76
2022/03/01 08:20:42;;;;;;;;;;;;;;;;;;5064803;28;1079;-76
2022/03/01 08:23:08;;;;;;;;;;;;;;;;;;5077384;28;1172;-76
2022/03/01 08:25:33;;;;;;;;;;;;;;;;;;5064506;28;1544;-76
2022/03/01 08:27:59;;;;;;;;;;;;;;;;;;5045212;28;1118;-76
2022/03/01 08:30:26;;;;;;;;;;;;;;;;;;5073634;28;1188;-76
2022/03/01 08:32:52;;;;;;;;;;;;;;;;;;5081715;28;1906;-76
2022/03/01 08:35:18;;;;;;;;;;;;;;;;;;5087852;28;1175;-76
2022/03/01 08:37:43;;;;;;;;;;;;;;;;;;5084110;28;1214;-76
2022/03/01 08:40:08;;;;;;;;;;;;;;;;;;5088824;28;1168;-76
2022/03/01 08:42:34;;;;;;;;;;;;;;;;;;5063556;28;1179;-75
2022/03/01 08:45:00;;;;;;;;;;;;;;;;;;5048923;28;1141;-75
2022/03/01 08:47:33;;;;;;;;;;;;;;;;;;5067029;28;1191;-76
2022/03/01 08:49:59;;;;;;;;;;;;;;;;;;5063881;28;1249;-76
2022/03/01 08:52:25;;;;;;;;;;;;;;;;;;5048998;28;1962;-76
2022/03/01 08:54:50;;;;;;;;;;;;;;;;;;5064772;28;1239;-75
2022/03/01 08:57:16;;;;;;;;;;;;;;;;;;5047772;28;1223;-76
2022/03/01 08:59:41;;;;;;;;;;;;;;;;;;5063407;28;1285;-76
2022/03/01 09:02:06;;;;;;;;;;;;;;;;;;5066625;28;1153;-76
2022/03/01 09:04:38;;;;;;;;;;;;;;;;;;5076749;28;1122;-76
2022/03/01 09:07:06;;;;;;;;;;;;;;;;;;5066456;28;1124;-75
2022/03/01 09:09:32;;;;;;;;;;;;;;;;;;5067091;28;1211;-76
2022/03/01 09:11:58;;;;;;;;;;;;;;;;;;5063558;28;1156;-77
2022/03/01 09:14:24;;;;;;;;;;;;;;;;;;5066274;28;1902;-76
2022/03/01 09:16:49;;;;;;;;;;;;;;;;;;5075943;28;1222;-76
2022/03/01 09:19:15;;;;;;;;;;;;;;;;;;5065696;28;1218;-75
2022/03/01 09:21:41;;;;;;;;;;;;;;;;;;5083490;28;1192;-75
2022/03/01 09:24:06;;;;;;;;;;;;;;;;;;5085783;28;1167;-76
2022/03/01 09:26:31;;;;;;;;;;;;;;;;;;5080117;28;1330;-77
2022/03/01 09:28:56;;;;;;;;;;;;;;;;;;5063273;28;1222;-77
2022/03/01 09:31:22;;;;;;;;;;;;;;;;;;5066091;28;1113;-77
2022/03/01 09:33:47;;;;;;;;;;;;;;;;;;5070661;28;1941;-77
2022/03/01 09:36:13;;;;;;;;;;;;;;;;;;5074006;28;1350;-79
2022/03/01 09:38:39;;;;;;;;;;;;;;;;;;5063969;28;1416;-77
2022/03/01 09:41:15;;;;;;;;;;;;;;;;;;5078483;28;1172;-76
2022/03/01 09:43:40;;;;;;;;;;;;;;;;;;5081695;28;1289;-76
2022/03/01 09:46:07;;;;;;;;;;;;;;;;;;5065398;28;1163;-76
2022/03/01 09:48:32;;;;;;;;;;;;;;;;;;5062465;28;1204;-75
2022/03/01 09:51:00;;;;;;;;;;;;;;;;;;5062952;28;1202;-77
2022/03/01 09:53:25;;;;;;;;;;;;;;;;;;5060525;28;1957;-77
2022/03/01 09:55:52;;;;;;;;;;;;;;;;;;5063272;28;1384;-76
2022/03/01 09:58:17;;;;;;;;;;;;;;;;;;5062243;28;1323;-76
2022/03/01 10:00:45;;;;;;;;;;;;;;;;;;5063981;28;1168;-77
2022/03/01 10:03:14;;;;;;;;;;;;;;;;;;5044320;28;1239;-76
2022/03/01 10:05:41;;;;;;;;;;;;;;;;;;5062071;28;1345;-77
2022/03/01 10:08:06;;;;;;;;;;;;;;;;;;5063532;28;1412;-76
2022/03/01 10:10:37;;;;;;;;;;;;;;;;;;5065017;28;1232;-76
2022/03/01 10:13:02;;;;;;;;;;;;;;;;;;5061414;28;1905;-77
2022/03/01 10:15:28;;;;;;;;;;;;;;;;;;5065463;28;1211;-77
2022/03/01 10:17:54;;;;;;;;;;;;;;;;;;5065927;28;1105;-77
2022/03/01 10:20:19;;;;;;;;;;;;;;;;;;5065266;28;1222;-77
2022/03/01 10:22:45;;;;;;;;;;;;;;;;;;5063648;28;1217;-78
2022/03/01 10:25:12;;;;;;;;;;;;;;;;;;5046927;28;1401;-77
2022/03/01 10:27:38;;;;;;;;;;;;;;;;;;5063005;28;1128;-78
2022/03/01 10:30:05;;;;;;;;;;;;;;;;;;5063576;28;1254;-77
2022/03/01 10:32:31;;;;;;;;;;;;;;;;;;5060908;28;1894;-77
2022/03/01 10:35:01;;;;;;;;;;;;;;;;;;5063665;28;1266;-79
2022/03/01 10:37:29;;;;;;;;;;;;;;;;;;5062367;28;1261;-79
2022/03/01 10:40:08;;;;;;;;;;;;;;;;;;5061897;28;1453;-77
2022/03/01 10:42:34;;;;;;;;;;;;;;;;;;5062659;28;1167;-77
2022/03/01 10:44:59;;;;;;;;;;;;;;;;;;5057902;28;1325;-78
2022/03/01 10:47:32;;;;;;;;;;;;;;;;;;5066440;28;1278;-79
2022/03/01 10:50:01;;;;;;;;;;;;;;;;;;5061632;28;1053;-77
2022/03/01 10:52:33;;;;;;;;;;;;;;;;;;5055700;28;1882;-78
2022/03/01 10:54:58;;;;;;;;;;;;;;;;;;5081426;28;1422;-78
2022/03/01 10:57:24;;;;;;;;;;;;;;;;;;5063167;28;1215;-78
2022/03/01 10:59:49;;;;;;;;;;;;;;;;;;5082057;28;1216;-78
2022/03/01 11:02:17;;;;;;;;;;;;;;;;;;5078218;28;1151;-80
2022/03/01 11:04:44;;;;;;;;;;;;;;;;;;5059822;28;1162;-78
2022/03/01 11:07:11;;;;;;;;;;;;;;;;;;5065589;28;1207;-78
2022/03/01 11:09:36;;;;;;;;;;;;;;;;;;5064853;28;1222;-77
2022/03/01 11:12:02;;;;;;;;;;;;;;;;;;5077423;28;1155;-78
2022/03/01 11:14:54;;;;;;;;;;;;;;;;;;5065631;28;1914;-79
2022/03/01 11:17:32;;;;;;;;;;;;;;;;;;5065921;28;1349;-78
2022/03/01 11:20:07;;;;;;;;;;;;;;;;;;5082081;28;1064;-78
2022/03/01 11:22:38;;;;;;;;;;;;;;;;;;5083256;28;1309;-78
2022/03/01 11:25:04;;;;;;;;;;;;;;;;;;5060820;28;1286;-78
2022/03/01 11:27:29;;;;;;;;;;;;;;;;;;5061894;28;1153;-79
2022/03/01 11:30:06;;;;;;;;;;;;;;;;;;5060800;28;1173;-78
2022/03/01 11:32:42;;;;;;;;;;;;;;;;;;5062844;28;1925;-78
2022/03/01 11:35:15;;;;;;;;;;;;;;;;;;5062522;28;1417;-78
2022/03/01 11:37:42;;;;;;;;;;;;;;;;;;5070214;28;1297;-79
2022/03/01 11:40:07;;;;;;;;;;;;;;;;;;5082103;28;1332;-79
2022/03/01 11:42:34;;;;;;;;;;;;;;;;;;5061944;28;1268;-78
2022/03/01 11:45:06;;;;;;;;;;;;;;;;;;5061963;28;1207;-78
2022/03/01 11:47:34;;;;;;;;;;;;;;;;;;5070909;28;1174;-79
2022/03/01 11:50:09;;;;;;;;;;;;;;;;;;5075433;28;1241;-78
2022/03/01 11:52:34;;;;;;;;;;;;;;;;;;5087572;28;1889;-79
2022/03/01 11:55:01;;;;;;;;;;;;;;;;;;5084589;28;1430;-79
2022/03/01 11:57:29;;;;;;;;;;;;;;;;;;5076498;28;1277;-80
2022/03/01 11:59:57;;;;;;;;;;;;;;;;;;5048662;28;1391;-80
2022/03/01 12:02:50;;;;;;;;;;;;;;;;;;5067115;28;1284;-80
2022/03/01 12:05:21;;;;;;;;;;;;;;;;;;5078766;28;1221;-79
2022/03/01 12:07:47;;;;;;;;;;;;;;;;;;5064305;28;1164;-79
2022/03/01 12:10:19;;;;;;;;;;;;;;;;;;5067596;28;1184;-80
2022/03/01 12:12:45;;;;;;;;;;;;;;;;;;5078344;28;1922;-79
2022/03/01 12:15:12;;;;;;;;;;;;;;;;;;5069391;28;1291;-78
2022/03/01 12:17:49;;;;;;;;;;;;;;;;;;5081497;28;1345;-79
2022/03/01 12:20:16;;;;;;;;;;;;;;;;;;5083625;28;1278;-79
2022/03/01 12:22:55;;;;;;;;;;;;;;;;;;5067154;28;1148;-80
2022/03/01 12:25:21;;;;;;;;;;;;;;;;;;5068460;28;1223;-78
2022/03/01 12:27:49;;;;;;;;;;;;;;;;;;5075538;28;1311;-79
2022/03/01 12:30:17;;;;;;;;;;;;;;;;;;5087314;28;1172;-79
2022/03/01 12:32:48;;;;;;;;;;;;;;;;;;5085243;28;1920;-79
2022/03/01 12:35:13;;;;;;;;;;;;;;;;;;5087155;28;1182;-78
2022/03/01 12:37:39;;;;;;;;;;;;;;;;;;5068748;28;1248;-79
2022/03/01 12:40:05;;;;;;;;;;;;;;;;;;5068890;28;1179;-79
2022/03/01 12:42:30;;;;;;;;;;;;;;;;;;5085341;28;1187;-80
2022/03/01 12:44:56;;;;;;;;;;;;;;;;;;5067718;28;1328;-80
2022/03/01 12:47:47;;;;;;;;;;;;;;;;;;5086419;28;1287;-80
2022/03/01 12:50:17;;;;;;;;;;;;;;;;;;5083561;28;1189;-79
2022/03/01 12:52:55;;;;;;;;;;;;;;;;;;5084435;28;1901;-79
2022/03/01 12:55:21;;;;;;;;;;;;;;;;;;5080302;28;1217;-77
2022/03/01 12:57:46;;;;;;;;;;;;;;;;;;5062145;28;1408;-84
2022/03/01 13:00:12;;;;;;;;;;;;;;;;;;5086050;28;1284;-84
2022/03/01 13:03:10;;;;;;;;;;;;;;;;;;5084433;28;1305;-81
2022/03/01 13:05:36;;;;;;;;;;;;;;;;;;5062573;28;1494;-81
2022/03/01 13:08:01;;;;;;;;;;;;;;;;;;5060579;28;1202;-82
2022/03/01 13:10:27;;;;;;;;;;;;;;;;;;5054461;28;1190;-81
2022/03/01 13:13:00;;;;;;;;;;;;;;;;;;5062314;28;1963;-81
2022/03/01 13:15:26;;;;;;;;;;;;;;;;;;5049599;28;1113;-82
2022/03/01 13:18:01;;;;;;;;;;;;;;;;;;5061092;28;1179;-82
2022/03/01 13:20:26;;;;;;;;;;;;;;;;;;5065148;28;1331;-83
2022/03/01 13:22:58;;;;;;;;;;;;;;;;;;5064253;28;1298;-82
2022/03/01 13:25:24;;;;;;;;;;;;;;;;;;5070493;28;1140;-82
2022/03/01 13:27:50;;;;;;;;;;;;;;;;;;5057739;28;1159;-82
2022/03/01 13:30:20;;;;;;;;;;;;;;;;;;5070506;28;1334;-82
2022/03/01 13:32:47;;;;;;;;;;;;;;;;;;5084566;28;1924;-82
2022/03/01 13:35:12;;;;;;;;;;;;;;;;;;5085396;28;1124;-82
2022/03/01 13:37:40;;;;;;;;;;;;;;;;;;5065925;28;1064;-81
2022/03/01 13:40:06;;;;;;;;;;;;;;;;;;5047451;28;1197;-81
2022/03/01 13:42:32;;;;;;;;;;;;;;;;;;5063339;28;1188;-81
2022/03/01 13:45:01;;;;;;;;;;;;;;;;;;5066464;28;1144;-81
2022/03/01 13:47:34;;;;;;;;;;;;;;;;;;5084145;28;1261;-82
2022/03/01 13:50:10;;;;;;;;;;;;;;;;;;5081868;28;1342;-83
2022/03/01 13:52:40;;;;;;;;;;;;;;;;;;5084384;28;1893;-82
2022/03/01 13:55:07;;;;;;;;;;;;;;;;;;5083963;28;1300;-82
2022/03/01 13:57:34;;;;;;;;;;;;;;;;;;5080317;28;1274;-81
2022/03/01 14:00:01;;;;;;;;;;;;;;;;;;5085313;28;1148;-80
2022/03/01 14:02:33;;;;;;;;;;;;;;;;;;5080415;28;1478;-81
2022/03/01 14:05:03;;;;;;;;;;;;;;;;;;5072683;28;1373;-80
2022/03/01 14:07:28;;;;;;;;;;;;;;;;;;5072616;28;1236;-81
2022/03/01 14:09:54;;;;;;;;;;;;;;;;;;5088326;28;1238;-81
2022/03/01 14:12:31;;;;;;;;;;;;;;;;;;5074318;28;1132;-80
2022/03/01 14:15:03;;;;;;;;;;;;;;;;;;5082290;28;1193;-80
2022/03/01 14:17:41;;;;;;;;;;;;;;;;;;5064509;28;1305;-79
2022/03/01 14:20:07;;;;;;;;;;;;;;;;;;5050023;28;1317;-80
2022/03/01 14:22:32;;;;;;;;;;;;;;;;;;5081216;28;1225;-80
2022/03/01 14:25:05;;;;;;;;;;;;;;;;;;5063100;28;1155;-80
2022/03/01 14:27:30;;;;;;;;;;;;;;;;;;5058692;28;1209;-81
2022/03/01 14:29:55;;;;;;;;;;;;;;;;;;5082645;28;1167;-81
2022/03/01 14:32:31;;;;;;;;;;;;;;;;;;5066928;28;1356;-81
2022/03/01 14:34:57;;;;;;;;;;;;;;;;;;5065564;28;1198;-81
2022/03/01 14:37:25;;;;;;;;;;;;;;;;;;5063124;28;1203;-80
2022/03/01 14:39:50;;;;;;;;;;;;;;;;;;5048419;28;1321;-81
2022/03/01 14:42:16;;;;;;;;;;;;;;;;;;5071160;28;1261;-80
2022/03/01 14:44:41;;;;;;;;;;;;;;;;;;5071086;28;1592;-78
2022/03/01 14:47:06;;;;;;;;;;;;;;;;;;5081705;28;1151;-79
2022/03/01 14:49:32;;;;;;;;;;;;;;;;;;5081807;28;1163;-79
2022/03/01 14:51:57;;;;;;;;;;;;;;;;;;5070796;28;1088;-80
2022/03/01 14:54:22;;;;;;;;;;;;;;;;;;5080051;28;1882;-79
2022/03/01 14:56:49;;;;;;;;;;;;;;;;;;5066082;28;1187;-81
2022/03/01 14:59:14;;;;;;;;;;;;;;;;;;5065596;28;1405;-79
2022/03/01 15:01:39;;;;;;;;;;;;;;;;;;5063122;28;1188;-79
2022/03/01 15:04:05;;;;;;;;;;;;;;;;;;5059125;28;1188;-80
2022/03/01 15:06:30;;;;;;;;;;;;;;;;;;5063175;28;1140;-80
2022/03/01 15:08:56;;;;;;;;;;;;;;;;;;5046375;28;1317;-79
2022/03/01 15:11:21;;;;;;;;;;;;;;;;;;5044096;28;1338;-80
2022/03/01 15:13:46;;;;;;;;;;;;;;;;;;5068427;28;1950;-79
2022/03/01 15:16:11;;;;;;;;;;;;;;;;;;5082340;28;1045;-79
2022/03/01 15:18:37;;;;;;;;;;;;;;;;;;5079850;28;1178;-80
2022/03/01 15:21:03;;;;;;;;;;;;;;;;;;5085125;28;1198;-78
2022/03/01 15:23:32;;;;;;;;;;;;;;;;;;5081744;28;1187;-81
2022/03/01 15:25:57;;;;;;;;;;;;;;;;;;5070999;28;1245;-79
2022/03/01 15:28:22;;;;;;;;;;;;;;;;;;5060383;28;1231;-79
2022/03/01 15:30:48;;;;;;;;;;;;;;;;;;5065890;28;1184;-80
2022/03/01 15:33:14;;;;;;;;;;;;;;;;;;5071106;28;1963;-80
2022/03/01 15:35:39;;;;;;;;;;;;;;;;;;5050616;28;1297;-80
2022/03/01 15:38:05;;;;;;;;;;;;;;;;;;5075496;28;1210;-80
2022/03/01 15:40:32;;;;;;;;;;;;;;;;;;5067899;28;1218;-80
2022/03/01 15:42:58;;;;;;;;;;;;;;;;;;5083673;28;1194;-75
2022/03/01 15:45:23;;;;;;;;;;;;;;;;;;5084585;28;1047;-83
2022/03/01 15:47:49;;;;;;;;;;;;;;;;;;5082014;28;1283;-84
2022/03/01 15:50:15;;;;;;;;;;;;;;;;;;5076929;28;1217;-82
2022/03/01 15:52:40;;;;;;;;;;;;;;;;;;5069127;28;1878;-85
2022/03/01 15:55:09;;;;;;;;;;;;;;;;;;5066090;28;1311;-79
2022/03/01 15:57:35;;;;;;;;;;;;;;;;;;5073103;28;1253;-79
2022/03/01 16:00:03;;;;;;;;;;;;;;;;;;5082661;28;1247;-82
2022/03/01 16:02:32;;;;;;;;;;;;;;;;;;5071164;28;1116;-83
2022/03/01 16:04:57;;;;;;;;;;;;;;;;;;5082473;28;1525;-83
2022/03/01 16:07:22;;;;;;;;;;;;;;;;;;5082773;28;1333;-79
2022/03/01 16:09:50;;;;;;;;;;;;;;;;;;5063500;28;1152;-83
2022/03/01 16:12:16;;;;;;;;;;;;;;;;;;5043444;28;1261;-81
2022/03/01 16:14:41;;;;;;;;;;;;;;;;;;5079434;28;1918;-84
2022/03/01 16:17:12;;;;;;;;;;;;;;;;;;5077674;28;1319;-82
2022/03/01 16:19:41;;;;;;;;;;;;;;;;;;5070165;28;1257;-84
2022/03/01 16:22:13;;;;;;;;;;;;;;;;;;5077899;28;1254;-83
2022/03/01 16:24:40;;;;;;;;;;;;;;;;;;5074727;28;1240;-81
2022/03/01 16:27:06;;;;;;;;;;;;;;;;;;5071783;28;1160;-83
2022/03/01 16:29:31;;;;;;;;;;;;;;;;;;5049992;28;1200;-83
2022/03/01 16:31:56;;;;;;;;;;;;;;;;;;5069490;28;1223;-87
2022/03/01 16:34:23;;;;;;;;;;;;;;;;;;5072295;28;1886;-81
2022/03/01 16:36:48;;;;;;;;;;;;;;;;;;5040410;28;1295;-82
2022/03/01 16:39:13;;;;;;;;;;;;;;;;;;5072909;28;1407;-83
2022/03/01 16:41:39;;;;;;;;;;;;;;;;;;5074043;28;1245;-84
2022/03/01 16:44:05;;;;;;;;;;;;;;;;;;5081232;28;1232;-83
2022/03/01 16:46:32;;;;;;;;;;;;;;;;;;5064748;28;1217;-82
2022/03/01 16:48:57;;;;;;;;;;;;;;;;;;5069401;28;1227;-83
2022/03/01 16:51:24;;;;;;;;;;;;;;;;;;5048184;28;1292;-81
2022/03/01 16:53:50;;;;;;;;;;;;;;;;;;5082102;28;1897;-82
2022/03/01 16:56:16;;;;;;;;;;;;;;;;;;5074737;28;1357;-78
2022/03/01 16:58:41;;;;;;;;;;;;;;;;;;5082860;28;1242;-82
2022/03/01 17:01:07;;;;;;;;;;;;;;;;;;5076730;28;1322;-82
2022/03/01 17:03:32;;;;;;;;;;;;;;;;;;5062658;28;1412;-82